createdAt,value
2022-11-15T00:01:49.477Z,73.50
2022-11-15T00:04:35.114Z,73.50
2022-11-15T00:07:48.188Z,73.40
2022-11-15T00:10:26.780Z,73.30
2022-11-15T00:13:13.730Z,73.30
2022-11-15T00:16:01.541Z,73.30
2022-11-15T00:18:50.520Z,73.20
2022-11-15T00:21:37.222Z,73.20
2022-11-15T00:24:22.978Z,73.10
2022-11-15T00:27:08.720Z,73.10
2022-11-15T00:29:54.495Z,73.20
2022-11-15T00:32:40.816Z,73.10
2022-11-15T00:35:26.553Z,73.10
2022-11-15T00:38:12.301Z,73.10
2022-11-15T00:40:57.846Z,72.90
2022-11-15T00:43:44.731Z,72.90
2022-11-15T00:46:31.188Z,72.90
2022-11-15T00:49:17.010Z,72.70
2022-11-15T00:52:03.153Z,72.50
2022-11-15T00:54:49.012Z,72.50
2022-11-15T00:57:34.752Z,72.50
2022-11-15T01:00:20.440Z,72.50
2022-11-15T01:03:06.114Z,72.70
2022-11-15T01:05:52.162Z,72.80
2022-11-15T01:08:40.023Z,72.90
2022-11-15T01:11:25.702Z,73.00
2022-11-15T01:14:11.728Z,73.10
2022-11-15T01:16:58.174Z,73.10
2022-11-15T01:19:43.838Z,73.20
2022-11-15T01:22:29.577Z,73.20
2022-11-15T01:25:15.421Z,73.20
2022-11-15T01:28:01.176Z,73.20
2022-11-15T01:30:47.047Z,73.20
2022-11-15T01:33:37.363Z,73.10
2022-11-15T01:36:23.755Z,73.10
2022-11-15T01:39:09.473Z,73.00
2022-11-15T01:41:56.734Z,73.00
2022-11-15T01:44:49.446Z,72.90
2022-11-15T01:47:47.039Z,72.90
2022-11-15T01:50:33.964Z,72.90
2022-11-15T01:53:22.674Z,72.90
2022-11-15T01:56:12.966Z,72.90
2022-11-15T01:59:03.904Z,73.00
2022-11-15T02:01:49.949Z,73.10
2022-11-15T02:04:47.344Z,73.20
2022-11-15T02:07:35.755Z,73.40
2022-11-15T02:10:24.273Z,73.60
2022-11-15T02:13:11.330Z,73.60
2022-11-15T02:16:11.289Z,73.50
2022-11-15T02:19:03.899Z,73.60
2022-11-15T02:22:15.786Z,73.50
2022-11-15T02:25:14.694Z,73.50
2022-11-15T02:28:36.503Z,73.30
2022-11-15T02:31:22.171Z,73.40
2022-11-15T02:34:26.488Z,73.40
2022-11-15T02:37:31.915Z,73.70
2022-11-15T02:40:38.277Z,73.70
2022-11-15T02:43:59.219Z,73.70
2022-11-15T02:47:16.126Z,73.70
2022-11-15T02:50:24.328Z,73.90
2022-11-15T02:53:10.442Z,73.90
2022-11-15T02:55:57.703Z,73.80
2022-11-15T02:59:19.431Z,74.00
2022-11-15T03:02:30.918Z,74.20
2022-11-15T03:05:44.673Z,74.10
2022-11-15T03:08:33.359Z,74.00
2022-11-15T03:11:22.549Z,74.00
2022-11-15T03:14:27.078Z,74.10
2022-11-15T03:17:29.398Z,74.60
2022-11-15T03:20:17.773Z,74.80
2022-11-15T03:23:10.242Z,74.60
2022-11-15T03:25:57.395Z,74.60
2022-11-15T03:28:59.952Z,74.60
2022-11-15T03:31:52.248Z,74.60
2022-11-15T03:34:48.483Z,74.50
2022-11-15T03:38:16.514Z,74.60
2022-11-15T03:41:09.070Z,75.20
2022-11-15T03:44:02.380Z,75.00
2022-11-15T03:47:12.938Z,75.20
2022-11-15T03:50:03.627Z,75.30
2022-11-15T03:52:50.857Z,75.40
2022-11-15T03:55:36.607Z,75.50
2022-11-15T03:58:22.733Z,75.40
2022-11-15T04:01:08.678Z,75.40
2022-11-15T04:03:55.130Z,75.50
2022-11-15T04:06:41.228Z,75.40
2022-11-15T04:09:26.974Z,75.40
2022-11-15T04:12:12.646Z,75.40
2022-11-15T04:15:09.799Z,75.40
2022-11-15T04:17:57.786Z,75.50
2022-11-15T04:21:02.587Z,75.60
2022-11-15T04:24:06.769Z,75.60
2022-11-15T04:26:52.748Z,75.50
2022-11-15T04:29:38.892Z,75.50
2022-11-15T04:32:24.683Z,75.50
2022-11-15T04:35:10.576Z,75.50
2022-11-15T04:37:57.379Z,75.50
2022-11-15T04:40:43.181Z,75.80
2022-11-15T04:43:30.263Z,75.80
2022-11-15T04:46:16.772Z,75.90
2022-11-15T04:49:02.570Z,76.10
2022-11-15T04:51:48.938Z,76.00
2022-11-15T04:54:35.106Z,75.80
2022-11-15T04:57:21.190Z,75.70
2022-11-15T05:00:13.790Z,75.70
2022-11-15T05:03:18.703Z,75.70
2022-11-15T05:06:04.960Z,75.80
2022-11-15T05:08:50.549Z,75.80
2022-11-15T05:11:36.665Z,75.80
2022-11-15T05:14:22.680Z,75.90
2022-11-15T05:17:08.218Z,75.90
2022-11-15T05:19:54.218Z,76.00
2022-11-15T05:22:40.362Z,76.20
2022-11-15T05:25:26.559Z,76.20
2022-11-15T05:28:12.705Z,76.40
2022-11-15T05:31:13.171Z,76.50
2022-11-15T05:34:00.288Z,76.50
2022-11-15T05:36:46.709Z,76.30
2022-11-15T05:39:32.771Z,76.40
2022-11-15T05:42:19.653Z,76.60
2022-11-15T05:45:09.138Z,76.70
2022-11-15T05:47:58.001Z,77.10
2022-11-15T05:50:47.364Z,77.10
2022-11-15T05:53:34.061Z,77.20
2022-11-15T05:56:20.153Z,77.20
2022-11-15T05:59:07.113Z,77.10
2022-11-15T06:01:53.245Z,77.40
2022-11-15T06:04:39.263Z,77.70
2022-11-15T06:07:25.385Z,78.10
2022-11-15T06:10:11.382Z,78.50
2022-11-15T06:12:59.105Z,80.10
2022-11-15T06:15:45.180Z,79.60
2022-11-15T06:18:37.162Z,79.40
2022-11-15T06:21:23.640Z,79.30
2022-11-15T06:24:09.794Z,78.90
2022-11-15T06:26:55.646Z,78.90
2022-11-15T06:29:41.700Z,78.80
2022-11-15T06:32:27.409Z,78.60
2022-11-15T06:35:13.725Z,78.80
2022-11-15T06:38:10.838Z,78.60
2022-11-15T06:41:07.719Z,78.40
2022-11-15T06:43:53.474Z,78.10
2022-11-15T06:46:39.335Z,78.00
2022-11-15T06:49:25.329Z,78.00
2022-11-15T06:52:11.184Z,78.10
2022-11-15T06:54:57.000Z,78.00
2022-11-15T06:57:52.688Z,78.10
2022-11-15T07:00:38.845Z,78.20
2022-11-15T07:03:26.857Z,78.10
2022-11-15T07:06:12.881Z,78.20
2022-11-15T07:08:59.047Z,78.30
2022-11-15T07:11:44.913Z,78.40
2022-11-15T07:14:30.871Z,78.70
2022-11-15T07:17:16.912Z,79.10
2022-11-15T07:20:02.739Z,79.20
2022-11-15T07:22:48.678Z,79.30
2022-11-15T07:25:34.846Z,79.30
2022-11-15T07:28:21.175Z,79.00
2022-11-15T07:31:09.287Z,78.90
2022-11-15T07:33:55.491Z,78.60
2022-11-15T07:36:41.359Z,78.40
2022-11-15T07:39:27.495Z,78.10
2022-11-15T07:42:32.016Z,78.00
2022-11-15T07:45:18.197Z,78.60
2022-11-15T07:48:04.451Z,77.80
2022-11-15T07:50:50.635Z,77.80
2022-11-15T07:53:36.471Z,77.50
2022-11-15T07:56:22.459Z,76.60
2022-11-15T07:59:08.453Z,75.80
2022-11-15T08:01:54.432Z,72.90
2022-11-15T08:04:40.876Z,71.40
2022-11-15T08:07:30.898Z,69.80
2022-11-15T08:10:21.206Z,68.00
2022-11-15T08:13:11.896Z,66.40
2022-11-15T08:16:02.460Z,66.00
2022-11-15T08:18:48.351Z,65.70
2022-11-15T08:21:34.111Z,65.80
2022-11-15T08:24:21.416Z,66.00
2022-11-15T08:27:15.544Z,66.20
2022-11-15T08:30:02.696Z,66.20
2022-11-15T08:32:50.142Z,66.60
2022-11-15T08:35:36.125Z,66.90
2022-11-15T08:38:22.086Z,67.20
2022-11-15T08:41:13.302Z,67.10
2022-11-15T08:43:59.125Z,67.50
2022-11-15T08:46:49.067Z,67.90
2022-11-15T08:49:35.246Z,68.20
2022-11-15T08:52:21.581Z,68.40
2022-11-15T08:55:08.359Z,68.40
2022-11-15T08:57:54.159Z,68.50
2022-11-15T09:00:40.198Z,68.70
2022-11-15T09:03:26.245Z,68.60
2022-11-15T09:06:12.819Z,68.60
2022-11-15T09:08:59.041Z,68.90
2022-11-15T09:11:45.437Z,69.20
2022-11-15T09:14:31.471Z,69.10
2022-11-15T09:17:20.413Z,69.30
2022-11-15T09:20:11.520Z,68.80
2022-11-15T09:23:04.728Z,68.80
2022-11-15T09:25:50.719Z,68.40
2022-11-15T09:28:37.305Z,68.40
2022-11-15T09:31:23.548Z,68.60
2022-11-15T09:34:09.419Z,68.60
2022-11-15T09:36:55.251Z,68.50
2022-11-15T09:39:40.899Z,68.10
2022-11-15T09:42:32.765Z,68.50
2022-11-15T09:45:19.016Z,67.80
2022-11-15T09:48:13.839Z,67.80
2022-11-15T09:51:05.415Z,67.90
2022-11-15T09:54:53.733Z,67.80
2022-11-15T09:56:32.707Z,67.70
2022-11-15T09:59:15.206Z,67.80
2022-11-15T10:02:11.946Z,67.60
2022-11-15T10:04:40.622Z,67.50
2022-11-15T10:07:23.343Z,67.60
2022-11-15T10:10:05.673Z,67.40
2022-11-15T10:12:33.104Z,67.30
2022-11-15T10:15:12.494Z,67.10
2022-11-15T10:18:10.583Z,66.50
2022-11-15T10:20:47.649Z,66.70
2022-11-15T10:23:21.594Z,66.70
2022-11-15T10:25:53.456Z,66.80
2022-11-15T10:28:28.884Z,66.50
2022-11-15T10:30:59.414Z,66.10
2022-11-15T10:33:35.103Z,66.10
2022-11-15T10:36:10.148Z,65.90
2022-11-15T10:38:50.222Z,65.30
2022-11-15T10:41:32.975Z,65.30
2022-11-15T10:44:22.784Z,64.20
2022-11-15T10:46:56.180Z,64.20
2022-11-15T10:49:31.632Z,64.80
2022-11-15T10:52:20.259Z,64.10
2022-11-15T10:54:59.311Z,63.70
2022-11-15T10:57:37.271Z,63.90
2022-11-15T11:00:26.351Z,64.20
2022-11-15T11:02:56.706Z,64.00
2022-11-15T11:05:41.804Z,63.70
2022-11-15T11:08:24.114Z,63.80
2022-11-15T11:11:02.573Z,63.80
2022-11-15T11:13:35.090Z,64.10
2022-11-15T11:16:14.443Z,64.10
2022-11-15T11:19:05.427Z,63.70
2022-11-15T11:22:03.823Z,63.50
2022-11-15T11:24:48.806Z,63.70
2022-11-15T11:27:37.277Z,63.60
2022-11-15T11:30:14.065Z,63.70
2022-11-15T11:32:55.061Z,63.90
2022-11-15T11:35:31.994Z,63.40
2022-11-15T11:38:18.268Z,63.30
2022-11-15T11:41:00.446Z,63.30
2022-11-15T11:43:46.760Z,63.40
2022-11-15T11:46:14.222Z,63.50
2022-11-15T11:48:49.889Z,63.60
2022-11-15T11:51:42.460Z,63.20
2022-11-15T11:54:21.314Z,62.90
2022-11-15T11:56:51.034Z,62.80
2022-11-15T11:59:48.754Z,62.60
2022-11-15T12:02:42.059Z,62.50
2022-11-15T12:05:58.131Z,62.60
2022-11-15T12:08:47.484Z,62.70
2022-11-15T12:11:17.966Z,62.30
2022-11-15T12:13:49.062Z,61.90
2022-11-15T12:16:29.120Z,62.60
2022-11-15T12:19:00.152Z,62.40
2022-11-15T12:21:45.451Z,62.30
2022-11-15T12:24:38.514Z,61.10
2022-11-15T12:27:23.422Z,61.00
2022-11-15T12:29:58.757Z,61.10
2022-11-15T12:32:35.838Z,61.40
2022-11-15T12:35:07.566Z,61.50
2022-11-15T12:37:38.681Z,61.50
2022-11-15T12:40:20.564Z,62.10
2022-11-15T12:43:05.315Z,61.30
2022-11-15T12:46:00.536Z,61.10
2022-11-15T12:48:49.216Z,61.30
2022-11-15T12:51:17.655Z,61.00
2022-11-15T12:53:45.167Z,60.90
2022-11-15T12:56:18.774Z,60.70
2022-11-15T12:58:59.514Z,60.20
2022-11-15T13:01:34.287Z,60.50
2022-11-15T13:04:22.450Z,60.20
2022-11-15T13:07:04.886Z,60.30
2022-11-15T13:09:33.357Z,60.20
2022-11-15T13:12:02.838Z,60.60
2022-11-15T13:14:40.722Z,60.80
2022-11-15T13:17:20.292Z,61.00
2022-11-15T13:19:49.940Z,61.30
2022-11-15T13:22:36.094Z,61.30
2022-11-15T13:25:04.560Z,61.60
2022-11-15T13:27:32.457Z,61.50
2022-11-15T13:30:14.838Z,61.70
2022-11-15T13:32:42.335Z,62.30
2022-11-15T13:35:10.050Z,62.30
2022-11-15T13:37:37.458Z,61.90
2022-11-15T13:40:31.486Z,62.10
2022-11-15T13:42:59.368Z,62.10
2022-11-15T13:45:29.391Z,62.20
2022-11-15T13:47:58.489Z,61.80
2022-11-15T13:50:34.740Z,61.80
2022-11-15T13:53:05.869Z,62.00
2022-11-15T13:55:33.996Z,62.00
2022-11-15T13:58:07.024Z,62.40
2022-11-15T14:00:46.075Z,62.60
2022-11-15T14:03:18.968Z,62.60
2022-11-15T14:06:07.673Z,62.60
2022-11-15T14:08:36.597Z,62.20
2022-11-15T14:11:21.105Z,62.60
2022-11-15T14:14:09.546Z,62.50
2022-11-15T14:16:43.650Z,61.90
2022-11-15T14:19:32.748Z,62.20
2022-11-15T14:22:16.163Z,61.50
2022-11-15T14:24:46.243Z,61.20
2022-11-15T14:27:29.937Z,61.50
2022-11-15T14:29:57.519Z,61.40
2022-11-15T14:32:30.545Z,61.60
2022-11-15T14:35:02.999Z,61.30
2022-11-15T14:37:34.914Z,61.20
2022-11-15T14:40:04.439Z,61.50
2022-11-15T14:42:32.157Z,61.50
2022-11-15T14:44:59.602Z,61.60
2022-11-15T14:47:26.982Z,61.40
2022-11-15T14:49:54.261Z,61.50
2022-11-15T14:52:36.418Z,61.40
2022-11-15T14:55:12.804Z,61.40
2022-11-15T14:57:40.086Z,61.60
2022-11-15T15:00:09.404Z,61.60
2022-11-15T15:02:41.572Z,61.70
2022-11-15T15:05:33.396Z,61.90
2022-11-15T15:08:01.610Z,62.00
2022-11-15T15:10:41.499Z,62.10
2022-11-15T15:13:24.373Z,62.10
2022-11-15T15:15:52.779Z,62.40
2022-11-15T15:18:21.388Z,62.60
2022-11-15T15:21:01.077Z,62.60
2022-11-15T15:23:31.762Z,62.50
2022-11-15T15:25:59.574Z,62.60
2022-11-15T15:28:32.952Z,62.60
2022-11-15T15:31:02.503Z,62.80
2022-11-15T15:33:30.066Z,62.90
2022-11-15T15:35:57.459Z,63.10
2022-11-15T15:38:24.731Z,63.20
2022-11-15T15:40:52.055Z,63.30
2022-11-15T15:43:19.452Z,63.60
2022-11-15T15:45:46.663Z,63.80
2022-11-15T15:48:15.875Z,63.90
2022-11-15T15:50:44.208Z,64.00
2022-11-15T15:53:12.726Z,64.50
2022-11-15T15:55:40.829Z,64.60
2022-11-15T15:58:09.221Z,64.60
2022-11-15T16:00:37.899Z,64.70
2022-11-15T16:03:05.718Z,65.00
2022-11-15T16:05:33.647Z,65.10
2022-11-15T16:08:01.147Z,65.30
2022-11-15T16:10:32.017Z,65.40
2022-11-15T16:12:59.608Z,65.70
2022-11-15T16:15:30.343Z,65.80
2022-11-15T16:17:59.882Z,66.10
2022-11-15T16:20:32.690Z,66.30
2022-11-15T16:23:05.803Z,66.60
2022-11-15T16:25:43.148Z,66.60
2022-11-15T16:28:20.198Z,66.90
2022-11-15T16:30:52.293Z,67.50
2022-11-15T16:33:23.025Z,67.30
2022-11-15T16:35:50.714Z,67.30
2022-11-15T16:38:18.806Z,67.60
2022-11-15T16:40:46.241Z,67.80
2022-11-15T16:43:13.974Z,67.90
2022-11-15T16:45:41.839Z,68.10
2022-11-15T16:48:25.481Z,68.10
2022-11-15T16:51:00.098Z,68.40
2022-11-15T16:53:28.236Z,68.30
2022-11-15T16:55:57.139Z,68.30
2022-11-15T16:58:25.036Z,68.30
2022-11-15T17:00:56.473Z,68.80
2022-11-15T17:03:24.847Z,68.70
2022-11-15T17:05:52.608Z,68.80
2022-11-15T17:08:21.777Z,68.70
2022-11-15T17:10:49.418Z,68.60
2022-11-15T17:13:16.853Z,68.60
2022-11-15T17:15:44.294Z,68.60
2022-11-15T17:18:13.309Z,68.70
2022-11-15T17:20:41.428Z,68.80
2022-11-15T17:23:15.139Z,69.00
2022-11-15T17:25:42.938Z,69.50
2022-11-15T17:28:11.056Z,69.40
2022-11-15T17:30:41.772Z,69.50
2022-11-15T17:33:10.359Z,69.60
2022-11-15T17:35:37.852Z,69.80
2022-11-15T17:38:05.212Z,69.90
2022-11-15T17:40:32.826Z,70.00
2022-11-15T17:43:00.246Z,70.20
2022-11-15T17:45:27.767Z,70.30
2022-11-15T17:47:55.617Z,70.40
2022-11-15T17:50:23.023Z,70.60
2022-11-15T17:52:50.367Z,70.80
2022-11-15T17:55:18.954Z,71.00
2022-11-15T17:57:46.307Z,70.90
2022-11-15T18:00:14.391Z,70.90
2022-11-15T18:02:41.714Z,70.80
2022-11-15T18:05:09.328Z,70.80
2022-11-15T18:07:36.916Z,70.80
2022-11-15T18:10:04.904Z,70.90
2022-11-15T18:12:32.334Z,71.00
2022-11-15T18:15:00.048Z,71.00
2022-11-15T18:17:27.969Z,71.70
2022-11-15T18:19:55.222Z,70.90
2022-11-15T18:22:23.416Z,70.90
2022-11-15T18:24:50.727Z,70.80
2022-11-15T18:27:18.039Z,70.90
2022-11-15T18:29:45.426Z,70.90
2022-11-15T18:32:14.992Z,71.10
2022-11-15T18:34:42.221Z,71.20
2022-11-15T18:37:09.538Z,71.10
2022-11-15T18:39:37.849Z,71.10
2022-11-15T18:42:05.429Z,71.00
2022-11-15T18:44:32.862Z,70.90
2022-11-15T18:47:00.354Z,70.90
2022-11-15T18:49:28.032Z,70.80
2022-11-15T18:51:56.923Z,70.80
2022-11-15T18:54:30.666Z,70.80
2022-11-15T18:56:59.158Z,70.70
2022-11-15T18:59:27.726Z,70.70
2022-11-15T19:01:56.904Z,70.60
2022-11-15T19:04:24.382Z,70.40
2022-11-15T19:06:53.405Z,70.40
2022-11-15T19:09:21.451Z,70.30
2022-11-15T19:11:51.422Z,70.30
2022-11-15T19:14:19.769Z,70.10
2022-11-15T19:16:50.299Z,70.00
2022-11-15T19:19:20.100Z,69.70
2022-11-15T19:21:47.983Z,69.60
2022-11-15T19:24:15.460Z,69.40
2022-11-15T19:26:43.113Z,69.20
2022-11-15T19:29:10.579Z,68.90
2022-11-15T19:31:38.443Z,68.90
2022-11-15T19:34:06.765Z,68.60
2022-11-15T19:36:37.353Z,68.40
2022-11-15T19:39:09.539Z,68.30
2022-11-15T19:41:38.505Z,68.20
2022-11-15T19:44:06.523Z,68.00
2022-11-15T19:46:34.458Z,67.80
2022-11-15T19:49:01.804Z,67.80
2022-11-15T19:51:30.801Z,67.70
2022-11-15T19:54:03.495Z,67.70
2022-11-15T19:56:30.856Z,67.60
2022-11-15T19:58:58.438Z,67.60
2022-11-15T20:01:31.181Z,67.60
2022-11-15T20:03:59.912Z,67.70
2022-11-15T20:06:30.558Z,67.70
2022-11-15T20:08:58.422Z,67.80
2022-11-15T20:11:26.273Z,67.80
2022-11-15T20:14:02.083Z,67.70
2022-11-15T20:16:29.875Z,67.80
2022-11-15T20:18:57.538Z,67.90
2022-11-15T20:21:25.214Z,67.90
2022-11-15T20:23:52.863Z,68.10
2022-11-15T20:26:20.865Z,68.10
2022-11-15T20:28:48.798Z,68.10
2022-11-15T20:31:17.218Z,68.30
2022-11-15T20:33:47.216Z,68.30
2022-11-15T20:36:15.876Z,68.40
2022-11-15T20:38:44.420Z,68.30
2022-11-15T20:41:12.954Z,68.30
2022-11-15T20:43:43.194Z,68.30
2022-11-15T20:46:11.975Z,68.40
2022-11-15T20:48:39.542Z,68.40
2022-11-15T20:51:15.165Z,68.60
2022-11-15T20:53:44.444Z,68.50
2022-11-15T20:56:14.444Z,68.50
2022-11-15T20:58:42.694Z,68.50
2022-11-15T21:01:12.122Z,68.60
2022-11-15T21:03:39.719Z,68.50
2022-11-15T21:06:07.460Z,68.60
2022-11-15T21:08:53.577Z,68.50
2022-11-15T21:11:39.584Z,68.70
2022-11-15T21:14:09.456Z,68.70
2022-11-15T21:16:37.943Z,68.80
2022-11-15T21:19:05.999Z,68.80
2022-11-15T21:21:33.809Z,68.90
2022-11-15T21:24:03.561Z,69.00
2022-11-15T21:26:31.047Z,69.10
2022-11-15T21:28:58.549Z,69.00
2022-11-15T21:31:25.987Z,69.10
2022-11-15T21:33:53.230Z,69.10
2022-11-15T21:36:20.742Z,69.10
2022-11-15T21:38:47.969Z,69.10
2022-11-15T21:41:15.276Z,69.20
2022-11-15T21:43:42.865Z,69.70
2022-11-15T21:46:10.203Z,69.30
2022-11-15T21:48:37.438Z,69.30
2022-11-15T21:51:07.672Z,69.30
2022-11-15T21:53:35.130Z,69.30
2022-11-15T21:56:03.586Z,69.20
2022-11-15T21:58:31.470Z,69.30
2022-11-15T22:01:18.762Z,69.30
2022-11-15T22:03:46.974Z,69.30
2022-11-15T22:06:17.753Z,69.50
2022-11-15T22:08:46.676Z,69.50
2022-11-15T22:11:14.854Z,69.50
2022-11-15T22:13:42.576Z,69.50
2022-11-15T22:16:10.801Z,69.60
2022-11-15T22:18:38.850Z,69.60
2022-11-15T22:21:12.162Z,69.80
2022-11-15T22:23:40.708Z,69.80
2022-11-15T22:26:11.653Z,69.90
2022-11-15T22:28:39.387Z,70.10
2022-11-15T22:31:07.030Z,70.10
2022-11-15T22:33:35.859Z,70.20
2022-11-15T22:36:05.202Z,70.30
2022-11-15T22:38:33.361Z,70.30
2022-11-15T22:41:01.131Z,70.40
2022-11-15T22:43:28.857Z,70.50
2022-11-15T22:45:58.776Z,70.60
2022-11-15T22:48:29.310Z,70.70
2022-11-15T22:50:57.689Z,70.70
2022-11-15T22:53:25.771Z,70.90
2022-11-15T22:56:00.054Z,70.90
2022-11-15T22:58:29.631Z,70.90
2022-11-15T23:00:59.850Z,71.00
2022-11-15T23:03:28.177Z,71.10
2022-11-15T23:05:56.426Z,71.20
2022-11-15T23:08:24.035Z,71.20
2022-11-15T23:11:10.154Z,71.40
2022-11-15T23:13:37.958Z,71.30
2022-11-15T23:16:22.495Z,71.30
2022-11-15T23:18:55.982Z,71.40
2022-11-15T23:21:45.193Z,71.40
2022-11-15T23:24:14.105Z,71.40
2022-11-15T23:26:42.969Z,71.40
2022-11-15T23:29:12.339Z,71.40
2022-11-15T23:32:02.061Z,71.50
2022-11-15T23:34:36.298Z,71.50
2022-11-15T23:37:04.820Z,71.50
2022-11-15T23:39:32.607Z,71.40
2022-11-15T23:42:04.540Z,71.50
2022-11-15T23:44:36.086Z,71.50
2022-11-15T23:47:03.793Z,71.50
2022-11-15T23:49:31.161Z,71.60
2022-11-15T23:51:58.821Z,71.70
2022-11-15T23:54:26.358Z,71.70
2022-11-15T23:56:53.835Z,71.80
2022-11-15T23:59:21.168Z,71.70
